createdAt,value
2022-12-19T00:01:52.902Z,24.50
2022-12-19T00:04:21.127Z,24.90
2022-12-19T00:06:47.608Z,23.30
2022-12-19T00:09:14.188Z,23.80
2022-12-19T00:11:40.876Z,24.73
2022-12-19T00:14:09.290Z,24.93
2022-12-19T00:16:35.814Z,23.93
2022-12-19T00:19:03.303Z,24.23
2022-12-19T00:21:32.072Z,23.70
2022-12-19T00:24:01.491Z,23.47
2022-12-19T00:26:31.053Z,22.60
2022-12-19T00:29:11.144Z,25.67
2022-12-19T00:31:40.493Z,24.50
2022-12-19T00:34:07.012Z,24.43
2022-12-19T00:36:34.278Z,23.27
2022-12-19T00:39:01.998Z,25.00
2022-12-19T00:41:34.636Z,24.67
2022-12-19T00:44:07.049Z,24.93
2022-12-19T00:46:35.063Z,24.03
2022-12-19T00:49:02.187Z,23.20
2022-12-19T00:51:31.412Z,22.83
2022-12-19T00:53:58.309Z,24.00
2022-12-19T00:56:27.910Z,21.77
2022-12-19T00:58:55.051Z,23.53
2022-12-19T01:01:24.190Z,22.90
2022-12-19T01:04:26.740Z,23.53
2022-12-19T01:06:37.698Z,26.83
2022-12-19T01:09:08.019Z,22.07
2022-12-19T01:11:53.113Z,21.50
2022-12-19T01:14:23.019Z,24.00
2022-12-19T01:16:50.852Z,22.73
2022-12-19T01:19:17.425Z,23.00
2022-12-19T01:21:43.924Z,22.67
2022-12-19T01:24:11.433Z,22.57
2022-12-19T01:26:38.159Z,23.47
2022-12-19T01:29:05.200Z,22.80
2022-12-19T01:31:33.324Z,24.20
2022-12-19T01:34:00.771Z,22.93
2022-12-19T01:36:27.917Z,20.97
2022-12-19T01:38:57.958Z,21.60
2022-12-19T01:41:24.878Z,23.40
2022-12-19T01:44:04.870Z,23.03
2022-12-19T01:46:57.474Z,22.60
2022-12-19T01:49:32.010Z,22.77
2022-12-19T01:52:06.225Z,23.30
2022-12-19T01:54:38.585Z,23.77
2022-12-19T01:57:10.837Z,22.43
2022-12-19T01:59:43.060Z,23.00
2022-12-19T02:02:28.726Z,23.73
2022-12-19T02:04:55.707Z,22.07
2022-12-19T02:07:24.796Z,22.83
2022-12-19T02:09:56.711Z,23.60
2022-12-19T02:12:25.769Z,22.60
2022-12-19T02:14:54.763Z,23.83
2022-12-19T02:17:35.405Z,23.50
2022-12-19T02:20:23.520Z,24.27
2022-12-19T02:23:27.178Z,23.00
2022-12-19T02:26:11.895Z,24.03
2022-12-19T02:28:53.560Z,22.60
2022-12-19T02:31:29.068Z,21.90
2022-12-19T02:34:17.187Z,20.70
2022-12-19T02:36:55.516Z,22.03
2022-12-19T02:39:23.076Z,22.10
2022-12-19T02:42:00.035Z,23.97
2022-12-19T02:44:26.417Z,24.70
2022-12-19T02:46:53.643Z,22.70
2022-12-19T02:49:30.399Z,23.07
2022-12-19T02:51:57.472Z,23.20
2022-12-19T02:54:24.598Z,23.20
2022-12-19T02:56:58.893Z,23.20
2022-12-19T02:59:40.928Z,21.90
2022-12-19T03:02:16.587Z,22.83
2022-12-19T03:04:59.569Z,23.07
2022-12-19T03:07:42.516Z,22.87
2022-12-19T03:10:30.485Z,22.20
2022-12-19T03:13:03.051Z,21.77
2022-12-19T03:15:31.508Z,23.40
2022-12-19T03:18:00.439Z,22.33
2022-12-19T03:20:45.283Z,21.17
2022-12-19T03:23:13.027Z,21.73
2022-12-19T03:25:43.197Z,21.30
2022-12-19T03:28:17.780Z,20.70
2022-12-19T03:30:46.626Z,23.27
2022-12-19T03:33:16.323Z,21.90
2022-12-19T03:35:43.758Z,20.90
2022-12-19T03:38:13.959Z,23.20
2022-12-19T03:40:44.215Z,20.27
2022-12-19T03:43:12.734Z,20.47
2022-12-19T03:46:05.273Z,20.07
2022-12-19T03:48:42.056Z,22.80
2022-12-19T03:51:20.691Z,21.83
2022-12-19T03:54:01.391Z,22.23
2022-12-19T03:56:38.343Z,22.83
2022-12-19T03:59:10.280Z,21.87
2022-12-19T04:01:38.332Z,22.83
2022-12-19T04:04:06.720Z,20.27
2022-12-19T04:06:34.434Z,20.83
2022-12-19T04:09:02.278Z,20.13
2022-12-19T04:11:35.095Z,23.17
2022-12-19T04:14:08.159Z,22.47
2022-12-19T04:16:50.767Z,20.70
2022-12-19T04:19:39.853Z,21.60
2022-12-19T04:22:16.468Z,21.13
2022-12-19T04:24:46.239Z,21.00
2022-12-19T04:27:14.320Z,21.87
2022-12-19T04:29:42.158Z,21.93
2022-12-19T04:32:10.346Z,21.40
2022-12-19T04:34:40.186Z,21.87
2022-12-19T04:37:09.794Z,23.20
2022-12-19T04:39:36.277Z,21.47
2022-12-19T04:42:02.720Z,20.40
2022-12-19T04:44:29.209Z,22.27
2022-12-19T04:46:55.672Z,21.10
2022-12-19T04:49:22.114Z,22.73
2022-12-19T04:51:49.078Z,23.37
2022-12-19T04:54:15.524Z,23.13
2022-12-19T04:56:42.105Z,22.00
2022-12-19T04:59:08.657Z,22.67
2022-12-19T05:01:35.193Z,22.37
2022-12-19T05:04:04.694Z,22.07
2022-12-19T05:06:32.030Z,21.97
2022-12-19T05:08:58.468Z,22.10
2022-12-19T05:11:24.930Z,24.10
2022-12-19T05:13:51.633Z,22.37
2022-12-19T05:16:18.725Z,22.77
2022-12-19T05:18:45.358Z,21.80
2022-12-19T05:21:12.471Z,23.00
2022-12-19T05:23:39.041Z,20.97
2022-12-19T05:26:06.744Z,22.63
2022-12-19T05:28:34.480Z,24.70
2022-12-19T05:31:16.252Z,23.20
2022-12-19T05:33:43.660Z,22.80
2022-12-19T05:36:11.697Z,22.20
2022-12-19T05:38:38.127Z,23.33
2022-12-19T05:41:15.646Z,24.40
2022-12-19T05:43:44.033Z,22.37
2022-12-19T05:46:10.769Z,22.90
2022-12-19T05:48:37.862Z,23.93
2022-12-19T05:51:04.752Z,22.87
2022-12-19T05:53:36.925Z,23.57
2022-12-19T05:56:04.416Z,21.37
2022-12-19T05:58:31.355Z,22.73
2022-12-19T06:01:07.573Z,23.83
2022-12-19T06:03:34.169Z,23.00
2022-12-19T06:06:11.172Z,24.50
2022-12-19T06:08:38.350Z,21.97
2022-12-19T06:11:06.971Z,23.37
2022-12-19T06:13:33.531Z,23.97
2022-12-19T06:16:12.748Z,24.20
2022-12-19T06:18:44.264Z,23.13
2022-12-19T06:21:22.370Z,23.07
2022-12-19T06:23:50.014Z,20.97
2022-12-19T06:26:20.145Z,24.43
2022-12-19T06:28:51.972Z,22.33
2022-12-19T06:31:20.528Z,22.20
2022-12-19T06:33:47.076Z,22.80
2022-12-19T06:36:20.683Z,22.17
2022-12-19T06:38:48.367Z,21.70
2022-12-19T06:41:34.409Z,21.70
2022-12-19T06:44:02.629Z,21.50
2022-12-19T06:46:29.299Z,21.83
2022-12-19T06:48:56.255Z,22.37
2022-12-19T06:51:23.382Z,22.40
2022-12-19T06:53:50.012Z,21.30
2022-12-19T06:56:17.333Z,22.47
2022-12-19T06:58:44.277Z,20.77
2022-12-19T07:01:22.096Z,21.10
2022-12-19T07:03:49.287Z,20.87
2022-12-19T07:06:15.901Z,20.70
2022-12-19T07:08:42.725Z,22.00
2022-12-19T07:11:09.215Z,20.60
2022-12-19T07:13:35.627Z,21.50
2022-12-19T07:16:04.797Z,19.40
2022-12-19T07:18:34.494Z,25.07
2022-12-19T07:21:02.240Z,20.93
2022-12-19T07:23:29.254Z,21.20
2022-12-19T07:25:55.831Z,21.03
2022-12-19T07:28:22.431Z,21.43
2022-12-19T07:30:48.917Z,19.77
2022-12-19T07:33:21.076Z,19.10
2022-12-19T07:35:48.246Z,19.67
2022-12-19T07:38:14.862Z,20.47
2022-12-19T07:40:41.278Z,22.50
2022-12-19T07:43:07.939Z,20.87
2022-12-19T07:45:37.561Z,19.53
2022-12-19T07:48:05.928Z,19.30
2022-12-19T07:50:33.488Z,21.20
2022-12-19T07:53:00.668Z,19.10
2022-12-19T07:55:36.912Z,19.60
2022-12-19T07:58:03.387Z,18.73
2022-12-19T08:00:31.352Z,20.67
2022-12-19T08:03:00.831Z,20.47
2022-12-19T08:05:30.951Z,20.57
2022-12-19T08:07:58.027Z,19.50
2022-12-19T08:10:24.555Z,20.10
2022-12-19T08:12:56.089Z,18.73
2022-12-19T08:15:22.809Z,19.90
2022-12-19T08:17:49.404Z,19.63
2022-12-19T08:20:32.250Z,19.30
2022-12-19T08:22:59.178Z,20.80
2022-12-19T08:25:25.754Z,19.27
2022-12-19T08:27:52.209Z,19.80
2022-12-19T08:30:19.479Z,20.60
2022-12-19T08:32:46.150Z,20.73
2022-12-19T08:35:12.995Z,18.77
2022-12-19T08:37:40.153Z,20.60
2022-12-19T08:40:07.540Z,21.10
2022-12-19T08:42:34.806Z,20.03
2022-12-19T08:45:01.713Z,19.53
2022-12-19T08:47:28.345Z,19.50
2022-12-19T08:49:54.889Z,19.77
2022-12-19T08:52:21.486Z,19.00
2022-12-19T08:54:52.289Z,19.60
2022-12-19T08:57:19.373Z,20.33
2022-12-19T08:59:45.930Z,19.97
2022-12-19T09:02:13.274Z,20.00
2022-12-19T09:05:59.654Z,18.20
2022-12-19T09:07:27.080Z,21.30
2022-12-19T09:09:54.342Z,20.07
2022-12-19T09:12:21.093Z,19.00
2022-12-19T09:14:47.625Z,18.73
2022-12-19T09:17:14.252Z,19.13
2022-12-19T09:19:41.981Z,19.23
2022-12-19T09:22:13.602Z,20.67
2022-12-19T09:24:40.520Z,20.03
2022-12-19T09:27:07.045Z,20.30
2022-12-19T09:29:35.476Z,20.03
2022-12-19T09:32:02.663Z,18.60
2022-12-19T09:34:36.753Z,19.57
2022-12-19T09:37:06.460Z,19.63
2022-12-19T09:39:34.041Z,20.73
2022-12-19T09:42:15.165Z,18.53
2022-12-19T09:45:08.330Z,17.70
2022-12-19T09:47:42.583Z,20.20
2022-12-19T09:50:36.383Z,18.10
2022-12-19T09:53:08.105Z,19.30
2022-12-19T09:55:38.050Z,19.40
2022-12-19T09:58:18.167Z,17.90
2022-12-19T10:00:57.384Z,19.20
2022-12-19T10:03:43.562Z,17.50
2022-12-19T10:07:16.200Z,18.03
2022-12-19T10:10:19.075Z,18.23
2022-12-19T10:12:40.546Z,16.60
2022-12-19T10:15:45.458Z,16.93
2022-12-19T10:18:19.333Z,17.87
2022-12-19T10:21:03.005Z,18.60
2022-12-19T10:24:04.550Z,16.73
2022-12-19T10:26:49.749Z,18.40
2022-12-19T10:29:57.038Z,18.03
2022-12-19T10:32:27.920Z,18.03
2022-12-19T10:34:55.132Z,17.40
2022-12-19T10:37:36.772Z,18.70
2022-12-19T10:40:32.240Z,18.00
2022-12-19T10:43:10.365Z,19.23
2022-12-19T10:45:45.482Z,17.43
2022-12-19T10:48:18.748Z,18.23
2022-12-19T10:50:47.727Z,17.83
2022-12-19T10:53:15.526Z,17.83
2022-12-19T10:55:47.119Z,17.63
2022-12-19T10:58:21.510Z,16.10
2022-12-19T11:01:12.790Z,17.90
2022-12-19T11:03:42.158Z,17.67
2022-12-19T11:06:37.602Z,16.80
2022-12-19T11:09:21.382Z,16.17
2022-12-19T11:16:25.611Z,16.53
2022-12-19T11:17:12.474Z,18.50
2022-12-19T11:25:37.032Z,17.67
2022-12-19T11:29:30.011Z,16.73
2022-12-19T11:29:30.941Z,15.90
2022-12-19T11:29:41.075Z,17.20
2022-12-19T11:30:46.603Z,17.33
2022-12-19T11:34:28.323Z,17.07
2022-12-19T11:37:24.077Z,16.40
2022-12-19T11:39:57.397Z,15.90
2022-12-19T11:42:30.561Z,16.07
2022-12-19T11:45:12.029Z,16.77
2022-12-19T11:47:47.190Z,16.00
2022-12-19T11:50:27.071Z,15.40
2022-12-19T11:53:16.596Z,15.00
2022-12-19T11:55:52.972Z,15.80
2022-12-19T11:58:19.839Z,17.87
2022-12-19T12:00:55.003Z,15.17
2022-12-19T12:04:01.116Z,15.90
2022-12-19T12:06:34.020Z,15.17
2022-12-19T12:11:50.166Z,15.63
2022-12-19T12:20:04.397Z,14.97
2022-12-19T12:29:13.013Z,15.03
2022-12-19T12:31:11.835Z,14.47
2022-12-19T12:31:15.661Z,14.47
2022-12-19T12:31:47.166Z,14.87
2022-12-19T12:31:51.156Z,15.30
2022-12-19T12:35:38.558Z,15.60
2022-12-19T12:38:33.774Z,15.00
2022-12-19T12:41:43.592Z,14.73
2022-12-19T12:44:12.024Z,13.93
2022-12-19T12:46:44.604Z,14.00
2022-12-19T12:49:37.186Z,14.83
2022-12-19T12:52:07.007Z,14.03
2022-12-19T12:54:37.923Z,12.50
2022-12-19T12:57:04.687Z,14.77
2022-12-19T12:59:31.827Z,14.37
2022-12-19T13:02:18.752Z,15.07
2022-12-19T13:04:59.331Z,13.87
2022-12-19T13:07:42.759Z,12.93
2022-12-19T13:10:53.696Z,13.20
2022-12-19T13:13:25.771Z,13.70
2022-12-19T13:15:52.385Z,13.00
2022-12-19T13:18:32.113Z,12.40
2022-12-19T13:21:00.132Z,13.07
2022-12-19T13:23:26.523Z,11.70
2022-12-19T13:25:54.499Z,12.27
2022-12-19T13:28:20.946Z,11.77
2022-12-19T13:31:18.658Z,12.70
2022-12-19T13:33:56.450Z,12.80
2022-12-19T13:39:49.008Z,11.53
2022-12-19T13:40:11.212Z,11.70
2022-12-19T13:43:10.338Z,10.80
2022-12-19T13:45:41.062Z,11.13
2022-12-19T13:48:17.277Z,11.67
2022-12-19T13:50:49.400Z,10.87
2022-12-19T13:53:18.891Z,11.27
2022-12-19T13:55:45.829Z,11.37
2022-12-19T13:58:36.792Z,11.27
2022-12-19T14:01:08.480Z,12.00
2022-12-19T14:03:49.155Z,11.00
2022-12-19T14:06:26.356Z,11.60
2022-12-19T14:09:16.719Z,10.20
2022-12-19T14:12:29.638Z,11.53
2022-12-19T14:15:12.251Z,13.00
2022-12-19T14:17:36.834Z,11.20
2022-12-19T14:22:04.512Z,12.23
2022-12-19T14:23:04.655Z,11.20
2022-12-19T14:28:21.635Z,11.63
2022-12-19T14:28:47.574Z,10.50
2022-12-19T14:31:19.297Z,10.73
2022-12-19T14:34:04.614Z,9.70
2022-12-19T14:36:38.386Z,11.37
2022-12-19T14:39:22.476Z,10.20
2022-12-19T14:42:19.268Z,10.93
2022-12-19T14:51:51.446Z,9.33
2022-12-19T14:53:33.958Z,10.40
2022-12-19T14:54:16.121Z,10.03
2022-12-19T14:54:43.807Z,11.83
2022-12-19T14:59:00.792Z,10.30
2022-12-19T15:01:33.252Z,10.50
2022-12-19T15:04:51.141Z,10.73
2022-12-19T15:07:06.946Z,10.90
2022-12-19T15:11:05.010Z,10.10
2022-12-19T15:14:50.663Z,9.60
2022-12-19T15:16:07.240Z,9.60
2022-12-19T15:18:33.806Z,10.73
2022-12-19T15:21:02.959Z,8.90
2022-12-19T15:23:30.789Z,9.93
2022-12-19T15:26:03.969Z,9.60
2022-12-19T15:28:50.454Z,11.63
2022-12-19T15:31:29.702Z,8.80
2022-12-19T15:36:43.520Z,10.07
2022-12-19T15:39:09.978Z,9.00
2022-12-19T15:41:36.737Z,9.87
2022-12-19T15:44:20.664Z,9.90
2022-12-19T15:46:49.307Z,8.60
2022-12-19T15:49:18.512Z,9.27
2022-12-19T15:51:45.377Z,9.40
2022-12-19T15:56:58.769Z,9.00
2022-12-19T15:59:36.372Z,8.57
2022-12-19T16:02:14.433Z,9.03
2022-12-19T16:04:41.158Z,9.20
2022-12-19T16:07:20.026Z,13.17
2022-12-19T16:09:47.330Z,10.70
2022-12-19T16:12:20.426Z,11.53
2022-12-19T16:14:53.133Z,10.40
2022-12-19T16:17:21.804Z,10.27
2022-12-19T16:19:48.749Z,9.40
2022-12-19T16:22:27.477Z,12.70
2022-12-19T16:24:54.690Z,8.00
2022-12-19T16:27:27.557Z,8.40
2022-12-19T16:29:54.705Z,8.73
2022-12-19T16:32:24.274Z,7.67
2022-12-19T16:34:52.356Z,7.97
2022-12-19T16:37:19.090Z,7.93
2022-12-19T16:39:45.582Z,8.63
2022-12-19T16:42:16.823Z,7.53
2022-12-19T16:44:47.795Z,7.23
2022-12-19T16:47:17.404Z,7.07
2022-12-19T16:49:44.736Z,7.30
2022-12-19T16:52:11.688Z,7.97
2022-12-19T16:54:38.112Z,8.07
2022-12-19T16:57:06.763Z,8.07
2022-12-19T16:59:36.761Z,7.73
2022-12-19T17:02:27.341Z,7.43
2022-12-19T17:04:54.329Z,7.57
2022-12-19T17:07:20.800Z,7.43
2022-12-19T17:09:47.256Z,8.20
2022-12-19T17:12:18.005Z,6.77
2022-12-19T17:14:44.846Z,7.70
2022-12-19T17:17:15.848Z,8.07
2022-12-19T17:19:45.216Z,7.63
2022-12-19T17:22:16.996Z,7.60
2022-12-19T17:24:50.032Z,7.27
2022-12-19T17:27:17.594Z,7.10
2022-12-19T17:29:44.444Z,7.70
2022-12-19T17:32:23.135Z,6.97
2022-12-19T17:34:50.783Z,8.27
2022-12-19T17:37:17.518Z,6.93
2022-12-19T17:39:43.934Z,8.37
2022-12-19T17:42:21.734Z,7.23
2022-12-19T17:44:48.225Z,7.33
2022-12-19T17:47:16.068Z,7.37
2022-12-19T17:49:42.997Z,7.83
2022-12-19T17:52:19.949Z,8.33
2022-12-19T17:54:46.532Z,8.13
2022-12-19T17:57:17.811Z,8.83
2022-12-19T17:59:46.274Z,9.00
2022-12-19T18:02:20.864Z,8.47
2022-12-19T18:04:47.455Z,9.10
2022-12-19T18:07:16.888Z,10.90
2022-12-19T18:09:44.058Z,7.40
2022-12-19T18:12:10.858Z,8.63
2022-12-19T18:14:37.467Z,7.57
2022-12-19T18:17:05.264Z,7.70
2022-12-19T18:19:34.220Z,7.60
2022-12-19T18:22:00.886Z,7.10
2022-12-19T18:24:27.324Z,8.30
2022-12-19T18:26:53.818Z,7.67
2022-12-19T18:29:20.244Z,7.30
2022-12-19T18:31:51.021Z,7.40
2022-12-19T18:34:21.486Z,8.00
2022-12-19T18:36:48.764Z,8.10
2022-12-19T18:39:18.286Z,6.97
2022-12-19T18:41:44.763Z,7.87
2022-12-19T18:44:13.328Z,7.80
2022-12-19T18:46:40.693Z,7.70
2022-12-19T18:49:07.285Z,7.40
2022-12-19T18:51:33.705Z,7.57
2022-12-19T18:54:00.417Z,6.97
2022-12-19T18:56:26.902Z,7.83
2022-12-19T18:58:53.356Z,7.37
2022-12-19T19:01:21.802Z,7.20
2022-12-19T19:03:56.445Z,6.70
2022-12-19T19:06:28.446Z,7.87
2022-12-19T19:08:58.852Z,7.80
2022-12-19T19:11:25.799Z,7.40
2022-12-19T19:13:52.928Z,7.53
2022-12-19T19:16:23.327Z,7.10
2022-12-19T19:18:52.950Z,7.00
2022-12-19T19:21:21.368Z,7.27
2022-12-19T19:23:55.403Z,7.17
2022-12-19T19:26:22.159Z,6.83
2022-12-19T19:28:52.199Z,7.53
2022-12-19T19:31:21.748Z,8.10
2022-12-19T19:33:53.115Z,7.13
2022-12-19T19:36:24.012Z,6.37
2022-12-19T19:38:54.897Z,7.60
2022-12-19T19:41:24.205Z,7.60
2022-12-19T19:43:50.654Z,7.20
2022-12-19T19:46:17.268Z,7.13
2022-12-19T19:48:43.824Z,7.00
2022-12-19T19:51:11.944Z,6.23
2022-12-19T19:53:38.472Z,6.30
2022-12-19T19:56:05.284Z,6.77
2022-12-19T19:58:32.169Z,17.70
2022-12-19T20:00:59.160Z,13.43
2022-12-19T20:03:26.867Z,6.93
2022-12-19T20:06:01.269Z,7.40
2022-12-19T20:08:30.980Z,7.40
2022-12-19T20:11:00.486Z,6.70
2022-12-19T20:13:30.276Z,6.50
2022-12-19T20:16:04.903Z,6.80
2022-12-19T20:18:31.473Z,7.00
2022-12-19T20:20:58.010Z,6.70
2022-12-19T20:23:25.370Z,6.70
2022-12-19T20:25:51.870Z,6.33
2022-12-19T20:28:18.469Z,7.03
2022-12-19T20:30:45.452Z,6.60
2022-12-19T20:33:12.122Z,6.77
2022-12-19T20:35:38.622Z,7.53
2022-12-19T20:38:05.040Z,7.40
2022-12-19T20:40:31.544Z,6.50
2022-12-19T20:42:58.014Z,6.70
2022-12-19T20:45:38.958Z,6.67
2022-12-19T20:48:05.704Z,6.40
2022-12-19T20:50:32.179Z,6.03
2022-12-19T20:52:58.676Z,7.43
2022-12-19T20:55:25.217Z,5.77
2022-12-19T20:57:51.664Z,5.60
2022-12-19T21:00:18.810Z,5.83
2022-12-19T21:03:25.740Z,5.33
2022-12-19T21:05:31.694Z,5.23
2022-12-19T21:07:58.145Z,7.07
2022-12-19T21:10:24.603Z,6.97
2022-12-19T21:12:51.285Z,6.10
2022-12-19T21:15:17.816Z,6.03
2022-12-19T21:17:44.247Z,8.40
2022-12-19T21:20:11.562Z,5.60
2022-12-19T21:22:38.017Z,5.63
2022-12-19T21:25:05.050Z,6.17
2022-12-19T21:27:31.607Z,7.10
2022-12-19T21:29:58.059Z,5.93
2022-12-19T21:32:24.551Z,5.63
2022-12-19T21:34:53.309Z,6.00
2022-12-19T21:37:19.897Z,7.10
2022-12-19T21:39:46.354Z,7.10
2022-12-19T21:42:12.850Z,6.63
2022-12-19T21:44:39.265Z,7.50
2022-12-19T21:47:05.735Z,5.80
2022-12-19T21:49:32.218Z,7.90
2022-12-19T21:51:58.635Z,6.80
2022-12-19T21:54:25.078Z,5.67
2022-12-19T21:56:51.536Z,5.67
2022-12-19T21:59:18.025Z,4.80
2022-12-19T22:01:44.962Z,5.60
2022-12-19T22:04:17.926Z,4.80
2022-12-19T22:06:44.578Z,4.70
2022-12-19T22:09:14.525Z,4.30
2022-12-19T22:11:41.470Z,4.30
2022-12-19T22:14:08.730Z,4.60
2022-12-19T22:16:35.762Z,4.33
2022-12-19T22:19:03.174Z,4.50
2022-12-19T22:21:30.016Z,4.50
2022-12-19T22:24:01.630Z,4.33
2022-12-19T22:26:30.090Z,4.43
2022-12-19T22:28:57.670Z,4.30
2022-12-19T22:31:32.891Z,4.60
2022-12-19T22:34:05.801Z,3.97
2022-12-19T22:36:34.259Z,4.87
2022-12-19T22:39:02.731Z,4.13
2022-12-19T22:41:29.584Z,4.33
2022-12-19T22:43:56.684Z,4.03
2022-12-19T22:46:28.369Z,4.17
2022-12-19T22:49:00.489Z,4.67
2022-12-19T22:51:29.595Z,11.30
2022-12-19T22:53:56.443Z,12.53
2022-12-19T22:56:26.512Z,4.90
2022-12-19T22:58:54.630Z,4.83
2022-12-19T23:01:26.262Z,5.10
2022-12-19T23:03:55.556Z,4.50
2022-12-19T23:06:23.652Z,4.40
2022-12-19T23:08:50.176Z,4.47
2022-12-19T23:11:19.817Z,4.30
2022-12-19T23:13:47.681Z,4.53
2022-12-19T23:16:14.755Z,4.30
2022-12-19T23:18:41.716Z,3.93
2022-12-19T23:21:09.234Z,4.30
2022-12-19T23:23:39.881Z,3.40
2022-12-19T23:26:15.123Z,4.50
2022-12-19T23:28:43.966Z,4.80
2022-12-19T23:31:13.180Z,7.10
2022-12-19T23:33:39.680Z,4.53
2022-12-19T23:36:07.044Z,4.70
2022-12-19T23:38:34.259Z,4.23
2022-12-19T23:41:06.065Z,3.83
2022-12-19T23:43:34.140Z,3.70
2022-12-19T23:46:23.919Z,3.80
2022-12-19T23:48:51.645Z,4.10
2022-12-19T23:51:20.895Z,3.40
2022-12-19T23:53:48.152Z,3.20
2022-12-19T23:56:20.589Z,3.10
2022-12-19T23:58:47.134Z,3.23
